createdAt,value
2018-02-18T00:00:34.911Z,59.99
2018-02-18T00:03:02.926Z,59.51
2018-02-18T00:05:29.188Z,60.05
2018-02-18T00:07:55.463Z,60.15
2018-02-18T00:10:21.744Z,60.08
2018-02-18T00:12:48.001Z,60.34
2018-02-18T00:15:15.006Z,60.46
2018-02-18T00:17:41.291Z,60.10
2018-02-18T00:20:08.280Z,59.69
2018-02-18T00:22:34.681Z,59.55
2018-02-18T00:25:01.897Z,59.62
2018-02-18T00:27:28.950Z,59.57
2018-02-18T00:29:55.262Z,60.15
2018-02-18T00:32:21.505Z,60.23
2018-02-18T00:34:48.665Z,60.47
2018-02-18T00:37:15.694Z,60.01
2018-02-18T00:39:41.977Z,60.29
2018-02-18T00:42:08.273Z,60.94
2018-02-18T00:44:35.305Z,61.21
2018-02-18T00:47:01.557Z,61.07
2018-02-18T00:49:28.535Z,61.39
2018-02-18T00:51:54.769Z,62.12
2018-02-18T00:54:21.075Z,62.57
2018-02-18T00:56:47.349Z,62.16
2018-02-18T00:59:13.628Z,62.28
2018-02-18T01:01:40.638Z,62.38
2018-02-18T01:04:06.896Z,62.18
2018-02-18T01:06:33.904Z,62.36
2018-02-18T01:09:00.142Z,61.93
2018-02-18T01:11:26.399Z,62.33
2018-02-18T01:13:53.400Z,62.34
2018-02-18T01:16:19.684Z,62.07
2018-02-18T01:18:46.694Z,61.93
2018-02-18T01:21:12.986Z,61.38
2018-02-18T01:23:39.245Z,62.68
2018-02-18T01:26:05.525Z,63.05
2018-02-18T01:28:32.577Z,63.31
2018-02-18T01:30:59.575Z,63.59
2018-02-18T01:33:25.825Z,63.25
2018-02-18T01:35:52.095Z,63.06
2018-02-18T01:38:18.382Z,62.40
2018-02-18T01:40:44.650Z,62.24
2018-02-18T01:43:10.939Z,62.68
2018-02-18T01:45:37.211Z,62.67
2018-02-18T01:48:03.462Z,62.50
2018-02-18T01:50:35.666Z,62.43
2018-02-18T01:53:01.895Z,62.26
2018-02-18T01:55:28.137Z,62.45
2018-02-18T01:57:55.114Z,62.97
2018-02-18T02:00:21.374Z,63.26
2018-02-18T02:02:47.629Z,63.19
2018-02-18T02:05:14.648Z,63.60
2018-02-18T02:07:40.923Z,63.77
2018-02-18T02:10:07.923Z,63.65
2018-02-18T02:12:34.159Z,63.09
2018-02-18T02:15:00.401Z,63.83
2018-02-18T02:17:26.635Z,63.84
2018-02-18T02:19:52.883Z,63.83
2018-02-18T02:22:19.864Z,63.79
2018-02-18T02:24:46.140Z,64.11
2018-02-18T02:27:12.376Z,63.50
2018-02-18T02:29:38.623Z,63.27
2018-02-18T02:32:05.652Z,63.38
2018-02-18T02:34:31.897Z,63.44
2018-02-18T02:36:58.188Z,63.75
2018-02-18T02:39:24.459Z,63.55
2018-02-18T02:41:51.486Z,64.08
2018-02-18T02:44:17.744Z,64.79
2018-02-18T02:46:44.748Z,64.52
2018-02-18T02:49:10.998Z,64.38
2018-02-18T02:51:37.249Z,64.09
2018-02-18T02:54:03.513Z,64.06
2018-02-18T02:56:29.770Z,64.07
2018-02-18T02:58:56.007Z,64.49
2018-02-18T03:01:22.229Z,65.12
2018-02-18T03:03:48.468Z,64.78
2018-02-18T03:06:14.790Z,65.73
2018-02-18T03:08:41.047Z,65.83
2018-02-18T03:11:08.035Z,65.53
2018-02-18T03:13:34.258Z,65.24
2018-02-18T03:16:00.519Z,65.50
2018-02-18T03:18:26.779Z,65.06
2018-02-18T03:20:53.768Z,65.64
2018-02-18T03:23:20.045Z,64.77
2018-02-18T03:25:46.292Z,65.48
2018-02-18T03:28:13.304Z,65.85
2018-02-18T03:30:39.537Z,65.57
2018-02-18T03:33:05.816Z,65.47
2018-02-18T03:35:32.128Z,66.20
2018-02-18T03:37:59.134Z,65.71
2018-02-18T03:40:25.400Z,65.95
2018-02-18T03:42:52.390Z,66.28
2018-02-18T03:45:18.638Z,65.93
2018-02-18T03:47:44.947Z,65.81
2018-02-18T03:50:11.213Z,66.09
2018-02-18T03:52:37.441Z,65.96
2018-02-18T03:55:03.727Z,66.01
2018-02-18T03:57:29.998Z,66.23
2018-02-18T03:59:56.292Z,65.99
2018-02-18T04:02:22.557Z,66.37
2018-02-18T04:04:48.869Z,66.57
2018-02-18T04:07:15.135Z,65.86
2018-02-18T04:09:41.389Z,65.65
2018-02-18T04:12:08.401Z,65.23
2018-02-18T04:14:34.647Z,65.19
2018-02-18T04:17:01.659Z,65.06
2018-02-18T04:19:27.915Z,65.09
2018-02-18T04:21:54.214Z,65.14
2018-02-18T04:24:20.459Z,65.31
2018-02-18T04:26:46.762Z,65.95
2018-02-18T04:29:13.036Z,65.99
2018-02-18T04:31:39.304Z,65.94
2018-02-18T04:34:05.563Z,65.62
2018-02-18T04:36:31.820Z,65.61
2018-02-18T04:38:58.118Z,65.31
2018-02-18T04:41:24.372Z,65.50
2018-02-18T04:43:50.619Z,65.67
2018-02-18T04:46:18.061Z,65.73
2018-02-18T04:48:44.333Z,65.49
2018-02-18T04:51:10.586Z,65.03
2018-02-18T04:53:36.832Z,63.96
2018-02-18T04:56:03.064Z,64.26
2018-02-18T04:58:29.488Z,64.31
2018-02-18T05:00:55.752Z,64.33
2018-02-18T05:03:21.975Z,64.12
2018-02-18T05:05:48.208Z,63.88
2018-02-18T05:08:15.227Z,63.88
2018-02-18T05:10:41.503Z,64.30
2018-02-18T05:13:08.491Z,64.35
2018-02-18T05:15:34.747Z,64.41
2018-02-18T05:18:01.017Z,63.79
2018-02-18T05:20:28.036Z,63.68
2018-02-18T05:22:54.305Z,63.09
2018-02-18T05:25:20.546Z,62.86
2018-02-18T05:27:46.826Z,62.71
2018-02-18T05:30:13.049Z,62.38
2018-02-18T05:32:39.278Z,61.83
2018-02-18T05:35:05.523Z,61.43
2018-02-18T05:37:31.776Z,61.55
2018-02-18T05:39:58.022Z,61.53
2018-02-18T05:42:24.270Z,61.92
2018-02-18T05:44:50.550Z,62.14
2018-02-18T05:47:17.519Z,62.31
2018-02-18T05:49:43.776Z,61.99
2018-02-18T05:52:11.825Z,62.33
2018-02-18T05:54:38.077Z,62.04
2018-02-18T05:57:04.337Z,61.63
2018-02-18T05:59:30.573Z,61.37
2018-02-18T06:01:56.829Z,61.95
2018-02-18T06:04:23.108Z,61.72
2018-02-18T06:06:49.350Z,61.75
2018-02-18T06:09:15.638Z,61.52
2018-02-18T06:11:41.843Z,61.33
2018-02-18T06:14:08.129Z,61.60
2018-02-18T06:16:34.387Z,62.16
2018-02-18T06:19:00.627Z,62.83
2018-02-18T06:21:27.601Z,63.03
2018-02-18T06:23:53.826Z,63.43
2018-02-18T06:26:20.059Z,63.98
2018-02-18T06:28:46.305Z,64.35
2018-02-18T06:31:12.532Z,64.08
2018-02-18T06:33:38.807Z,64.42
2018-02-18T06:36:05.820Z,64.93
2018-02-18T06:38:32.104Z,64.96
2018-02-18T06:40:58.379Z,65.62
2018-02-18T06:43:24.668Z,65.25
2018-02-18T06:45:50.936Z,65.24
2018-02-18T06:48:17.202Z,64.68
2018-02-18T06:50:51.193Z,64.05
2018-02-18T06:53:17.425Z,63.13
2018-02-18T06:55:43.652Z,63.13
2018-02-18T06:58:09.944Z,63.02
2018-02-18T07:00:36.197Z,63.08
2018-02-18T07:03:02.557Z,62.02
2018-02-18T07:05:28.828Z,61.35
2018-02-18T07:07:55.049Z,60.80
2018-02-18T07:10:21.342Z,61.11
2018-02-18T07:12:47.604Z,61.41
2018-02-18T07:15:13.855Z,61.29
2018-02-18T07:17:40.183Z,61.02
2018-02-18T07:20:06.385Z,60.61
2018-02-18T07:22:33.410Z,59.99
2018-02-18T07:24:59.674Z,59.34
2018-02-18T07:27:25.962Z,58.74
2018-02-18T07:29:52.208Z,58.73
2018-02-18T07:32:19.219Z,58.42
2018-02-18T07:34:45.474Z,57.92
2018-02-18T07:37:11.820Z,57.44
2018-02-18T07:39:38.110Z,57.96
2018-02-18T07:42:04.454Z,57.60
2018-02-18T07:44:30.715Z,56.77
2018-02-18T07:46:56.997Z,56.31
2018-02-18T07:49:23.260Z,55.94
2018-02-18T07:51:49.529Z,56.27
2018-02-18T07:54:15.802Z,55.51
2018-02-18T07:56:42.053Z,56.13
2018-02-18T07:59:08.303Z,55.54
2018-02-18T08:01:34.529Z,55.23
2018-02-18T08:04:01.537Z,55.14
2018-02-18T08:06:27.831Z,54.21
2018-02-18T08:08:54.101Z,53.85
2018-02-18T08:11:20.335Z,52.76
2018-02-18T08:13:46.577Z,52.73
2018-02-18T08:16:13.565Z,51.97
2018-02-18T08:18:39.876Z,51.76
2018-02-18T08:21:06.129Z,51.42
2018-02-18T08:23:32.370Z,50.78
2018-02-18T08:25:58.692Z,51.17
2018-02-18T08:28:24.990Z,52.25
2018-02-18T08:30:52.038Z,51.95
2018-02-18T08:33:19.064Z,51.60
2018-02-18T08:35:45.387Z,50.89
2018-02-18T08:38:11.661Z,50.46
2018-02-18T08:40:37.908Z,49.40
2018-02-18T08:43:04.167Z,48.94
2018-02-18T08:45:30.433Z,46.97
2018-02-18T08:47:57.425Z,46.59
2018-02-18T08:50:23.743Z,46.77
2018-02-18T08:52:49.967Z,45.93
2018-02-18T08:55:16.311Z,45.50
2018-02-18T08:57:42.593Z,46.18
2018-02-18T09:00:09.629Z,45.83
2018-02-18T09:02:35.919Z,45.67
2018-02-18T09:05:02.236Z,45.23
2018-02-18T09:07:28.551Z,45.17
2018-02-18T09:09:54.802Z,44.86
2018-02-18T09:12:21.088Z,44.66
2018-02-18T09:14:48.130Z,44.31
2018-02-18T09:17:15.168Z,45.00
2018-02-18T09:19:41.491Z,45.03
2018-02-18T09:22:07.746Z,45.12
2018-02-18T09:24:34.736Z,44.37
2018-02-18T09:27:01.737Z,44.37
2018-02-18T09:29:28.759Z,44.76
2018-02-18T09:31:55.001Z,44.18
2018-02-18T09:34:21.303Z,43.70
2018-02-18T09:36:47.569Z,43.68
2018-02-18T09:39:14.009Z,44.59
2018-02-18T09:41:41.013Z,45.52
2018-02-18T09:44:07.345Z,45.83
2018-02-18T09:46:33.640Z,45.76
2018-02-18T09:48:59.927Z,45.71
2018-02-18T09:51:26.269Z,45.66
2018-02-18T09:53:53.321Z,45.52
2018-02-18T09:56:19.592Z,45.42
2018-02-18T09:58:45.872Z,45.45
2018-02-18T10:01:12.128Z,45.87
2018-02-18T10:03:38.408Z,45.48
2018-02-18T10:06:04.650Z,45.45
2018-02-18T10:08:30.898Z,44.69
2018-02-18T10:10:57.188Z,43.76
2018-02-18T10:13:23.494Z,44.03
2018-02-18T10:15:49.768Z,44.68
2018-02-18T10:18:16.022Z,44.88
2018-02-18T10:20:43.060Z,45.70
2018-02-18T10:23:09.362Z,46.19
2018-02-18T10:25:35.619Z,46.42
2018-02-18T10:28:01.857Z,46.32
2018-02-18T10:30:28.135Z,46.35
2018-02-18T10:32:54.384Z,46.01
2018-02-18T10:35:20.673Z,46.44
2018-02-18T10:37:46.949Z,46.58
2018-02-18T10:40:13.205Z,47.31
2018-02-18T10:42:39.461Z,47.90
2018-02-18T10:45:05.751Z,48.75
2018-02-18T10:47:32.059Z,49.15
2018-02-18T10:49:58.328Z,49.59
2018-02-18T10:52:24.614Z,49.49
2018-02-18T10:54:50.911Z,48.47
2018-02-18T10:57:17.248Z,48.29
2018-02-18T10:59:43.559Z,48.07
2018-02-18T11:02:10.611Z,47.83
2018-02-18T11:04:37.606Z,48.91
2018-02-18T11:07:03.970Z,47.64
2018-02-18T11:09:30.264Z,47.82
2018-02-18T11:11:56.523Z,47.63
2018-02-18T11:14:22.793Z,48.34
2018-02-18T11:16:49.086Z,47.88
2018-02-18T11:19:15.354Z,47.56
2018-02-18T11:21:41.608Z,47.14
2018-02-18T11:24:07.904Z,46.63
2018-02-18T11:26:34.922Z,46.62
2018-02-18T11:29:01.234Z,46.75
2018-02-18T11:31:27.560Z,46.32
2018-02-18T11:33:53.838Z,45.96
2018-02-18T11:36:20.836Z,45.26
2018-02-18T11:38:47.082Z,45.06
2018-02-18T11:41:13.332Z,44.86
2018-02-18T11:43:40.356Z,44.02
2018-02-18T11:46:07.170Z,44.59
2018-02-18T11:48:33.795Z,45.31
2018-02-18T11:51:00.056Z,44.90
2018-02-18T11:53:26.370Z,44.94
2018-02-18T11:55:52.614Z,44.34
2018-02-18T11:58:18.911Z,43.75
2018-02-18T12:00:45.161Z,43.39
2018-02-18T12:03:11.410Z,43.24
2018-02-18T12:05:37.739Z,43.06
2018-02-18T12:08:04.017Z,42.91
2018-02-18T12:10:31.045Z,42.69
2018-02-18T12:12:57.317Z,43.22
2018-02-18T12:15:23.617Z,43.30
2018-02-18T12:17:49.865Z,42.36
2018-02-18T12:20:16.135Z,42.30
2018-02-18T12:22:42.429Z,42.35
2018-02-18T12:25:08.702Z,42.38
2018-02-18T12:27:34.996Z,42.33
2018-02-18T12:30:08.333Z,41.59
2018-02-18T12:32:34.621Z,42.23
2018-02-18T12:35:00.951Z,41.63
2018-02-18T12:37:27.213Z,41.67
2018-02-18T12:40:14.637Z,43.11
2018-02-18T12:42:40.900Z,44.25
2018-02-18T12:45:07.922Z,43.55
2018-02-18T12:47:34.203Z,43.01
2018-02-18T12:50:00.566Z,41.91
2018-02-18T12:52:26.832Z,41.05
2018-02-18T12:54:53.105Z,41.81
2018-02-18T12:57:19.368Z,41.84
2018-02-18T12:59:45.643Z,43.55
2018-02-18T13:02:12.626Z,43.44
2018-02-18T13:04:38.921Z,43.11
2018-02-18T13:07:05.958Z,42.74
2018-02-18T13:09:32.210Z,42.81
2018-02-18T13:11:58.482Z,43.27
2018-02-18T13:14:24.908Z,43.90
2018-02-18T13:16:51.149Z,44.76
2018-02-18T13:19:17.461Z,45.06
2018-02-18T13:21:43.831Z,44.90
2018-02-18T13:24:10.162Z,45.24
2018-02-18T13:26:36.426Z,44.18
2018-02-18T13:29:02.708Z,43.67
2018-02-18T13:31:28.967Z,44.08
2018-02-18T13:33:55.947Z,44.16
2018-02-18T13:36:22.227Z,43.96
2018-02-18T13:38:48.481Z,44.22
2018-02-18T13:41:14.752Z,44.21
2018-02-18T13:43:41.768Z,44.21
2018-02-18T13:46:08.014Z,44.81
2018-02-18T13:48:34.253Z,43.95
2018-02-18T13:51:00.540Z,43.70
2018-02-18T13:53:27.558Z,43.58
2018-02-18T13:55:53.825Z,43.87
2018-02-18T13:58:20.079Z,43.99
2018-02-18T14:00:46.305Z,44.52
2018-02-18T14:03:12.557Z,44.14
2018-02-18T14:05:38.835Z,43.79
2018-02-18T14:08:05.833Z,43.43
2018-02-18T14:10:32.063Z,43.26
2018-02-18T14:12:58.334Z,43.19
2018-02-18T14:15:25.382Z,42.64
2018-02-18T14:17:52.395Z,42.75
2018-02-18T14:20:18.673Z,42.81
2018-02-18T14:22:52.609Z,44.03
2018-02-18T14:25:18.865Z,44.03
2018-02-18T14:27:45.561Z,44.51
2018-02-18T14:30:11.827Z,44.72
2018-02-18T14:32:38.065Z,44.00
2018-02-18T14:35:04.379Z,44.22
2018-02-18T14:37:30.780Z,43.25
2018-02-18T14:39:57.042Z,43.21
2018-02-18T14:45:56.062Z,45.04
2018-02-18T14:51:54.015Z,46.27
2018-02-18T14:57:34.071Z,45.72
2018-02-18T15:00:01.068Z,44.51
2018-02-18T15:02:27.385Z,45.32
2018-02-18T15:04:53.655Z,45.43
2018-02-18T15:07:20.008Z,44.79
2018-02-18T15:09:46.263Z,44.90
2018-02-18T15:12:13.649Z,44.76
2018-02-18T15:14:39.947Z,44.49
2018-02-18T15:17:06.228Z,44.22
2018-02-18T15:19:32.535Z,43.96
2018-02-18T15:21:59.024Z,44.90
2018-02-18T15:24:26.034Z,45.17
2018-02-18T15:26:52.340Z,45.18
2018-02-18T15:29:18.623Z,45.51
2018-02-18T15:31:44.962Z,45.78
2018-02-18T15:34:11.287Z,45.59
2018-02-18T15:36:37.631Z,45.34
2018-02-18T15:39:04.735Z,45.63
2018-02-18T15:41:30.982Z,46.05
2018-02-18T15:43:57.997Z,45.83
2018-02-18T15:46:32.212Z,46.46
2018-02-18T15:48:58.544Z,46.41
2018-02-18T15:51:24.892Z,45.25
2018-02-18T15:53:51.202Z,44.70
2018-02-18T15:56:17.568Z,44.84
2018-02-18T15:58:43.878Z,45.09
2018-02-18T16:01:10.191Z,45.38
2018-02-18T16:03:36.446Z,45.61
2018-02-18T16:06:03.480Z,45.17
2018-02-18T16:08:29.774Z,45.36
2018-02-18T16:10:56.026Z,46.46
2018-02-18T16:13:22.345Z,45.80
2018-02-18T16:15:48.623Z,45.66
2018-02-18T16:18:15.711Z,46.03
2018-02-18T16:20:42.765Z,46.36
2018-02-18T16:23:09.849Z,46.44
2018-02-18T16:25:36.107Z,47.19
2018-02-18T16:28:02.406Z,47.65
2018-02-18T16:30:28.673Z,47.72
2018-02-18T16:32:54.956Z,47.17
2018-02-18T16:35:21.250Z,47.10
2018-02-18T16:37:49.332Z,46.95
2018-02-18T16:40:16.335Z,45.94
2018-02-18T16:42:42.626Z,45.99
2018-02-18T16:45:08.897Z,45.58
2018-02-18T16:47:35.376Z,44.93
2018-02-18T16:50:01.747Z,44.82
2018-02-18T16:52:28.001Z,45.06
2018-02-18T16:54:54.368Z,45.16
2018-02-18T16:57:21.379Z,45.18
2018-02-18T16:59:47.721Z,44.95
2018-02-18T17:02:14.743Z,45.08
2018-02-18T17:04:41.065Z,45.76
2018-02-18T17:07:07.319Z,46.22
2018-02-18T17:09:33.617Z,46.04
2018-02-18T17:11:59.897Z,46.58
2018-02-18T17:14:27.150Z,46.42
2018-02-18T17:16:54.450Z,46.87
2018-02-18T17:19:20.700Z,46.96
2018-02-18T17:21:48.093Z,47.19
2018-02-18T17:24:15.143Z,47.22
2018-02-18T17:26:42.164Z,47.56
2018-02-18T17:29:08.428Z,47.54
2018-02-18T17:31:34.817Z,47.84
2018-02-18T17:34:01.102Z,47.84
2018-02-18T17:36:27.348Z,47.97
2018-02-18T17:38:53.643Z,48.13
2018-02-18T17:41:27.682Z,48.05
2018-02-18T17:43:53.967Z,48.29
2018-02-18T17:46:20.248Z,48.38
2018-02-18T17:48:46.591Z,48.60
2018-02-18T17:51:12.897Z,48.86
2018-02-18T17:53:39.191Z,49.09
2018-02-18T17:56:05.486Z,49.39
2018-02-18T17:58:38.786Z,49.74
2018-02-18T18:01:05.081Z,49.83
2018-02-18T18:03:31.390Z,50.01
2018-02-18T18:05:57.688Z,49.77
2018-02-18T18:08:24.744Z,49.79
2018-02-18T18:10:51.051Z,49.67
2018-02-18T18:13:17.312Z,49.70
2018-02-18T18:15:43.659Z,49.37
2018-02-18T18:18:09.961Z,49.42
2018-02-18T18:20:36.373Z,49.64
2018-02-18T18:23:02.690Z,49.44
2018-02-18T18:25:29.081Z,49.42
2018-02-18T18:27:55.363Z,49.44
2018-02-18T18:30:21.650Z,48.94
2018-02-18T18:32:47.992Z,48.80
2018-02-18T18:35:15.141Z,48.46
2018-02-18T18:37:42.165Z,48.45
2018-02-18T18:40:08.471Z,48.15
2018-02-18T18:42:35.543Z,48.53
2018-02-18T18:45:01.901Z,49.04
2018-02-18T18:47:28.968Z,49.19
2018-02-18T18:49:55.307Z,49.30
2018-02-18T18:52:21.613Z,49.10
2018-02-18T18:54:48.644Z,49.28
2018-02-18T18:57:14.989Z,48.96
2018-02-18T18:59:42.042Z,48.67
2018-02-18T19:02:08.332Z,48.63
2018-02-18T19:04:34.635Z,48.33
2018-02-18T19:07:01.252Z,48.29
2018-02-18T19:09:28.617Z,48.24
2018-02-18T19:11:54.927Z,48.21
2018-02-18T19:14:21.967Z,48.10
2018-02-18T19:16:49.018Z,48.23
2018-02-18T19:19:18.178Z,47.79
2018-02-18T19:21:44.462Z,47.83
2018-02-18T19:24:11.502Z,47.90
2018-02-18T19:26:37.858Z,48.17
2018-02-18T19:29:04.159Z,48.38
2018-02-18T19:31:31.312Z,48.78
2018-02-18T19:33:59.174Z,48.71
2018-02-18T19:36:26.259Z,48.78
2018-02-18T19:38:52.592Z,48.98
2018-02-18T19:41:18.919Z,49.21
2018-02-18T19:43:45.232Z,49.54
2018-02-18T19:46:11.535Z,49.69
2018-02-18T19:48:37.823Z,49.75
2018-02-18T19:51:05.206Z,49.74
2018-02-18T19:53:32.243Z,49.84
2018-02-18T19:55:58.557Z,50.25
2018-02-18T19:58:24.897Z,50.45
2018-02-18T20:00:51.249Z,50.09
2018-02-18T20:03:17.542Z,50.27
2018-02-18T20:05:43.880Z,49.93
2018-02-18T20:08:10.220Z,50.37
2018-02-18T20:10:36.542Z,49.92
2018-02-18T20:13:02.866Z,50.17
2018-02-18T20:15:29.174Z,49.94
2018-02-18T20:17:57.034Z,49.81
2018-02-18T20:20:24.129Z,49.57
2018-02-18T20:22:50.493Z,49.81
2018-02-18T20:25:16.902Z,49.73
2018-02-18T20:27:43.213Z,49.95
2018-02-18T20:30:09.535Z,49.93
2018-02-18T20:32:35.889Z,50.52
2018-02-18T20:35:02.277Z,50.70
2018-02-18T20:37:28.599Z,50.37
2018-02-18T20:39:55.644Z,50.09
2018-02-18T20:42:22.806Z,50.79
2018-02-18T20:44:49.877Z,50.43
2018-02-18T20:47:16.185Z,50.76
2018-02-18T20:49:42.627Z,50.69
2018-02-18T20:52:09.017Z,50.41
2018-02-18T20:54:35.345Z,50.58
2018-02-18T20:57:01.832Z,50.88
2018-02-18T20:59:28.132Z,50.98
2018-02-18T21:01:55.328Z,51.02
2018-02-18T21:04:21.622Z,50.82
2018-02-18T21:06:48.682Z,50.41
2018-02-18T21:09:14.963Z,50.63
2018-02-18T21:11:41.297Z,49.99
2018-02-18T21:14:07.584Z,50.63
2018-02-18T21:16:33.897Z,51.35
2018-02-18T21:19:00.238Z,51.76
2018-02-18T21:21:26.542Z,51.18
2018-02-18T21:23:52.801Z,52.15
2018-02-18T21:26:19.124Z,52.56
2018-02-18T21:28:46.139Z,52.30
2018-02-18T21:31:12.434Z,52.30
2018-02-18T21:33:38.762Z,51.84
2018-02-18T21:36:05.080Z,52.09
2018-02-18T21:38:31.356Z,51.83
2018-02-18T21:40:57.637Z,52.76
2018-02-18T21:43:23.918Z,52.49
2018-02-18T21:45:50.215Z,52.64
2018-02-18T21:48:16.543Z,52.39
2018-02-18T21:50:42.858Z,52.52
2018-02-18T21:53:09.171Z,53.21
2018-02-18T21:55:35.467Z,54.14
2018-02-18T21:58:01.802Z,54.33
2018-02-18T22:00:28.074Z,54.85
2018-02-18T22:02:54.439Z,55.38
2018-02-18T22:05:20.726Z,56.03
2018-02-18T22:07:47.826Z,56.52
2018-02-18T22:10:14.076Z,56.92
2018-02-18T22:12:40.354Z,57.46
2018-02-18T22:15:06.679Z,57.26
2018-02-18T22:17:32.935Z,57.24
2018-02-18T22:19:59.178Z,57.31
2018-02-18T22:22:25.456Z,57.56
2018-02-18T22:24:52.488Z,57.74
2018-02-18T22:27:18.782Z,57.75
2018-02-18T22:29:45.053Z,58.01
2018-02-18T22:32:12.043Z,58.08
2018-02-18T22:34:38.315Z,58.22
2018-02-18T22:37:04.568Z,58.63
2018-02-18T22:39:31.575Z,58.53
2018-02-18T22:41:58.537Z,58.61
2018-02-18T22:44:24.829Z,57.78
2018-02-18T22:46:53.784Z,58.08
2018-02-18T22:49:22.096Z,57.82
2018-02-18T22:51:48.387Z,57.88
2018-02-18T22:54:15.392Z,58.01
2018-02-18T22:56:42.400Z,58.18
2018-02-18T22:59:08.708Z,57.93
2018-02-18T23:01:42.974Z,57.88
2018-02-18T23:04:09.239Z,58.37
2018-02-18T23:06:35.522Z,58.44
2018-02-18T23:09:01.794Z,57.99
2018-02-18T23:11:28.140Z,58.14
2018-02-18T23:13:54.591Z,59.27
2018-02-18T23:16:21.674Z,59.15
2018-02-18T23:18:47.944Z,59.08
2018-02-18T23:21:14.232Z,59.35
2018-02-18T23:23:40.485Z,59.10
2018-02-18T23:26:06.797Z,58.84
2018-02-18T23:28:33.042Z,59.19
2018-02-18T23:30:59.336Z,59.44
2018-02-18T23:33:25.628Z,59.74
2018-02-18T23:35:51.873Z,60.02
2018-02-18T23:38:18.870Z,60.16
2018-02-18T23:40:45.125Z,60.23
2018-02-18T23:43:11.409Z,60.42
2018-02-18T23:45:37.683Z,60.71
2018-02-18T23:48:04.705Z,60.90
2018-02-18T23:50:30.964Z,60.91
2018-02-18T23:52:57.289Z,61.01
2018-02-18T23:55:23.521Z,61.14
2018-02-18T23:57:49.789Z,61.14
